createdAt,value
2022-12-15T00:00:23.191Z,14.73
2022-12-15T00:03:09.307Z,15.60
2022-12-15T00:05:55.183Z,16.07
2022-12-15T00:08:42.229Z,16.57
2022-12-15T00:11:27.740Z,16.50
2022-12-15T00:14:13.101Z,16.23
2022-12-15T00:16:58.654Z,17.33
2022-12-15T00:19:44.056Z,17.53
2022-12-15T00:22:29.593Z,16.97
2022-12-15T00:25:16.745Z,16.37
2022-12-15T00:28:02.259Z,15.50
2022-12-15T00:30:49.981Z,16.47
2022-12-15T00:33:36.199Z,16.70
2022-12-15T00:36:22.102Z,16.53
2022-12-15T00:38:50.404Z,16.97
2022-12-15T00:41:20.640Z,17.23
2022-12-15T00:43:48.960Z,15.50
2022-12-15T00:46:34.889Z,16.17
2022-12-15T00:49:03.766Z,16.53
2022-12-15T00:51:49.718Z,16.47
2022-12-15T00:54:35.126Z,16.10
2022-12-15T00:57:22.398Z,16.40
2022-12-15T01:00:07.875Z,15.73
2022-12-15T01:02:53.424Z,16.00
2022-12-15T01:05:39.553Z,17.00
2022-12-15T01:08:25.204Z,17.53
2022-12-15T01:11:11.004Z,16.77
2022-12-15T01:13:58.220Z,17.20
2022-12-15T01:16:43.700Z,17.23
2022-12-15T01:19:29.211Z,17.60
2022-12-15T01:21:57.544Z,17.17
2022-12-15T01:24:25.853Z,17.40
2022-12-15T01:26:54.127Z,18.97
2022-12-15T01:29:23.947Z,17.97
2022-12-15T01:31:52.482Z,18.87
2022-12-15T01:34:22.822Z,19.10
2022-12-15T01:36:51.162Z,19.30
2022-12-15T01:39:19.500Z,19.80
2022-12-15T01:41:46.798Z,19.37
2022-12-15T01:44:17.539Z,19.13
2022-12-15T01:46:48.558Z,18.53
2022-12-15T01:49:22.104Z,18.00
2022-12-15T01:51:53.495Z,18.17
2022-12-15T01:54:24.657Z,17.50
2022-12-15T01:56:57.386Z,18.37
2022-12-15T01:59:30.673Z,17.80
2022-12-15T02:02:00.641Z,17.83
2022-12-15T02:04:29.287Z,17.87
2022-12-15T02:06:57.604Z,17.90
2022-12-15T02:09:27.717Z,17.83
2022-12-15T02:12:03.845Z,17.30
2022-12-15T02:14:59.179Z,17.80
2022-12-15T02:17:37.742Z,17.80
2022-12-15T02:20:41.009Z,17.53
2022-12-15T02:24:00.552Z,16.53
2022-12-15T02:27:07.414Z,17.50
2022-12-15T02:30:10.542Z,17.23
2022-12-15T02:32:48.102Z,17.77
2022-12-15T02:35:22.311Z,16.77
2022-12-15T02:37:51.350Z,18.23
2022-12-15T02:40:19.771Z,16.93
2022-12-15T02:42:51.733Z,16.73
2022-12-15T02:45:25.445Z,16.23
2022-12-15T02:48:06.023Z,14.97
2022-12-15T02:50:50.188Z,15.53
2022-12-15T02:53:35.981Z,14.60
2022-12-15T02:56:10.193Z,15.97
2022-12-15T02:58:48.174Z,18.13
2022-12-15T03:01:23.705Z,34.43
2022-12-15T03:03:54.048Z,33.77
2022-12-15T03:06:22.451Z,25.10
2022-12-15T03:08:50.785Z,19.00
2022-12-15T03:11:19.090Z,16.43
2022-12-15T03:13:47.786Z,16.43
2022-12-15T03:16:18.415Z,15.20
2022-12-15T03:18:47.170Z,15.00
2022-12-15T03:21:16.848Z,14.83
2022-12-15T03:23:45.152Z,16.57
2022-12-15T03:26:13.567Z,18.03
2022-12-15T03:28:42.842Z,19.23
2022-12-15T03:31:11.321Z,18.50
2022-12-15T03:33:39.610Z,16.23
2022-12-15T03:36:08.778Z,14.23
2022-12-15T03:38:38.426Z,13.37
2022-12-15T03:41:06.893Z,11.77
2022-12-15T03:43:35.218Z,11.30
2022-12-15T03:46:03.600Z,10.23
2022-12-15T03:48:31.936Z,9.63
2022-12-15T03:51:00.373Z,9.47
2022-12-15T03:53:28.882Z,9.03
2022-12-15T03:55:58.794Z,9.17
2022-12-15T03:58:27.063Z,9.63
2022-12-15T04:00:55.488Z,9.17
2022-12-15T04:03:23.908Z,9.43
2022-12-15T04:05:52.374Z,12.87
2022-12-15T04:08:26.984Z,15.47
2022-12-15T04:10:55.248Z,16.70
2022-12-15T04:13:24.928Z,18.13
2022-12-15T04:15:53.230Z,18.10
2022-12-15T04:18:21.598Z,18.07
2022-12-15T04:20:50.291Z,14.77
2022-12-15T04:23:18.796Z,12.00
2022-12-15T04:26:04.324Z,10.77
2022-12-15T04:28:51.428Z,8.60
2022-12-15T04:31:40.734Z,8.03
2022-12-15T04:34:30.487Z,8.00
2022-12-15T04:37:16.639Z,7.77
2022-12-15T04:40:06.258Z,7.67
2022-12-15T04:42:53.636Z,8.50
2022-12-15T04:45:43.778Z,7.73
2022-12-15T04:48:30.499Z,8.30
2022-12-15T04:51:16.394Z,8.73
2022-12-15T04:54:02.999Z,8.80
2022-12-15T04:56:50.076Z,9.07
2022-12-15T04:59:35.971Z,8.97
2022-12-15T05:02:23.376Z,9.47
2022-12-15T05:05:09.079Z,9.70
2022-12-15T05:07:54.461Z,11.07
2022-12-15T05:10:40.193Z,11.17
2022-12-15T05:13:26.468Z,10.90
2022-12-15T05:16:12.487Z,10.97
2022-12-15T05:18:59.739Z,10.90
2022-12-15T05:21:45.117Z,10.60
2022-12-15T05:24:30.752Z,11.37
2022-12-15T05:27:16.657Z,11.33
2022-12-15T05:30:02.055Z,11.67
2022-12-15T05:32:33.353Z,12.13
2022-12-15T05:35:03.139Z,10.97
2022-12-15T05:37:31.454Z,12.83
2022-12-15T05:39:59.783Z,16.03
2022-12-15T05:42:28.112Z,16.80
2022-12-15T05:44:56.429Z,13.73
2022-12-15T05:47:24.710Z,12.30
2022-12-15T05:49:53.035Z,11.93
2022-12-15T05:52:22.711Z,10.70
2022-12-15T05:54:51.662Z,9.37
2022-12-15T05:57:20.004Z,9.73
2022-12-15T05:59:48.311Z,10.17
2022-12-15T06:02:16.687Z,10.43
2022-12-15T06:04:45.122Z,10.00
2022-12-15T06:07:13.517Z,8.83
2022-12-15T06:09:43.178Z,8.23
2022-12-15T06:12:11.543Z,8.67
2022-12-15T06:14:39.826Z,7.13
2022-12-15T06:17:08.130Z,7.57
2022-12-15T06:19:36.419Z,7.40
2022-12-15T06:22:05.539Z,6.90
2022-12-15T06:24:34.300Z,6.70
2022-12-15T06:27:04.044Z,7.37
2022-12-15T06:29:32.359Z,8.87
2022-12-15T06:32:00.613Z,8.37
2022-12-15T06:34:29.089Z,8.63
2022-12-15T06:36:57.384Z,8.53
2022-12-15T06:39:25.705Z,8.60
2022-12-15T06:41:54.141Z,7.57
2022-12-15T06:44:23.819Z,7.93
2022-12-15T06:46:52.281Z,7.43
2022-12-15T06:49:20.777Z,7.17
2022-12-15T06:51:50.694Z,6.97
2022-12-15T06:54:18.981Z,6.77
2022-12-15T06:56:47.272Z,6.47
2022-12-15T06:59:18.522Z,7.63
2022-12-15T07:01:48.498Z,11.43
2022-12-15T07:04:17.145Z,11.03
2022-12-15T07:06:51.743Z,9.30
2022-12-15T07:09:20.072Z,8.77
2022-12-15T07:11:50.417Z,7.27
2022-12-15T07:14:18.701Z,7.43
2022-12-15T07:16:48.407Z,6.63
2022-12-15T07:19:16.709Z,6.40
2022-12-15T07:21:45.200Z,5.80
2022-12-15T07:24:13.999Z,6.27
2022-12-15T07:26:42.754Z,5.30
2022-12-15T07:29:11.951Z,5.70
2022-12-15T07:31:41.735Z,5.77
2022-12-15T07:34:11.922Z,6.03
2022-12-15T07:36:40.593Z,6.10
2022-12-15T07:39:09.523Z,6.07
2022-12-15T07:41:40.455Z,7.07
2022-12-15T07:44:08.991Z,7.37
2022-12-15T07:46:37.336Z,7.23
2022-12-15T07:49:05.721Z,7.43
2022-12-15T07:51:35.739Z,6.93
2022-12-15T07:54:04.096Z,6.90
2022-12-15T07:56:38.902Z,6.90
2022-12-15T07:59:08.922Z,6.73
2022-12-15T08:01:37.496Z,6.37
2022-12-15T08:04:07.119Z,5.87
2022-12-15T08:06:37.137Z,5.90
2022-12-15T08:09:05.520Z,5.93
2022-12-15T08:11:35.393Z,5.30
2022-12-15T08:14:06.206Z,5.40
2022-12-15T08:16:37.521Z,5.20
2022-12-15T08:19:06.953Z,4.97
2022-12-15T08:21:36.596Z,5.00
2022-12-15T08:24:05.590Z,5.10
2022-12-15T08:26:33.932Z,6.80
2022-12-15T08:31:55.683Z,15.53
2022-12-15T08:34:24.209Z,12.97
2022-12-15T08:36:53.955Z,21.67
2022-12-15T08:39:22.213Z,39.23
2022-12-15T08:41:51.307Z,23.67
2022-12-15T08:44:19.647Z,11.83
2022-12-15T08:46:47.926Z,9.60
2022-12-15T08:49:21.425Z,7.27
2022-12-15T08:51:50.864Z,6.63
2022-12-15T08:54:21.766Z,6.00
2022-12-15T08:56:50.463Z,6.50
2022-12-15T08:59:19.407Z,5.83
2022-12-15T09:01:48.252Z,6.77
2022-12-15T09:04:16.972Z,7.47
2022-12-15T09:06:50.456Z,7.53
2022-12-15T09:09:21.043Z,7.83
2022-12-15T09:11:49.576Z,7.70
2022-12-15T09:14:19.717Z,7.03
2022-12-15T09:16:51.241Z,6.70
2022-12-15T09:19:20.036Z,5.93
2022-12-15T09:21:49.517Z,7.47
2022-12-15T09:24:27.421Z,9.20
2022-12-15T09:27:04.367Z,8.93
2022-12-15T09:29:32.918Z,8.57
2022-12-15T09:32:01.226Z,9.20
2022-12-15T09:34:29.627Z,9.10
2022-12-15T09:36:58.072Z,8.60
2022-12-15T09:39:26.401Z,8.37
2022-12-15T09:41:59.789Z,8.70
2022-12-15T09:44:31.529Z,8.57
2022-12-15T09:47:08.137Z,7.60
2022-12-15T09:49:46.897Z,7.87
2022-12-15T09:52:17.416Z,7.07
2022-12-15T09:54:46.704Z,7.50
2022-12-15T09:57:23.985Z,8.20
2022-12-15T10:00:25.903Z,8.90
2022-12-15T10:03:24.633Z,11.60
2022-12-15T10:06:20.114Z,10.27
2022-12-15T10:08:55.295Z,9.73
2022-12-15T10:11:37.119Z,10.70
2022-12-15T10:14:14.545Z,9.73
2022-12-15T10:16:55.977Z,8.50
2022-12-15T10:19:32.728Z,7.90
2022-12-15T10:22:01.312Z,7.93
2022-12-15T10:28:00.376Z,7.90
2022-12-15T10:30:28.913Z,7.90
2022-12-15T10:33:03.650Z,8.27
2022-12-15T10:35:34.153Z,9.00
2022-12-15T10:38:04.880Z,8.17
2022-12-15T10:40:50.405Z,8.03
2022-12-15T10:43:28.287Z,7.60
2022-12-15T10:46:12.368Z,9.83
2022-12-15T10:48:42.840Z,10.33
2022-12-15T10:51:23.382Z,9.70
2022-12-15T10:53:54.708Z,9.20
2022-12-15T10:56:32.331Z,10.77
2022-12-15T10:59:04.267Z,11.30
2022-12-15T11:01:35.883Z,12.33
2022-12-15T11:04:05.957Z,12.87
2022-12-15T11:06:37.031Z,13.00
2022-12-15T11:09:28.026Z,12.87
2022-12-15T11:12:14.008Z,14.50
2022-12-15T11:14:47.846Z,16.73
2022-12-15T11:17:21.033Z,18.03
2022-12-15T11:20:02.025Z,16.97
2022-12-15T11:22:39.405Z,15.50
2022-12-15T11:25:19.110Z,19.77
2022-12-15T11:27:51.256Z,17.03
2022-12-15T11:30:22.413Z,14.50
2022-12-15T11:32:55.187Z,13.37
2022-12-15T11:35:31.932Z,12.43
2022-12-15T11:38:07.520Z,12.30
2022-12-15T11:40:39.897Z,11.57
2022-12-15T11:43:33.152Z,13.13
2022-12-15T11:46:21.488Z,15.23
2022-12-15T11:49:16.214Z,13.03
2022-12-15T11:51:51.926Z,11.60
2022-12-15T11:54:27.653Z,10.63
2022-12-15T11:57:01.119Z,9.63
2022-12-15T11:59:51.156Z,9.47
2022-12-15T12:03:06.830Z,9.60
2022-12-15T12:05:56.697Z,11.67
2022-12-15T12:08:47.305Z,14.10
2022-12-15T12:11:23.799Z,14.37
2022-12-15T12:14:11.454Z,12.10
2022-12-15T12:16:48.645Z,15.03
2022-12-15T12:19:21.534Z,15.30
2022-12-15T12:21:52.565Z,13.93
2022-12-15T12:24:28.039Z,14.40
2022-12-15T12:27:00.474Z,15.43
2022-12-15T12:29:34.061Z,13.30
2022-12-15T12:32:09.122Z,11.27
2022-12-15T12:34:51.447Z,9.80
2022-12-15T12:37:26.928Z,9.70
2022-12-15T12:40:04.106Z,10.43
2022-12-15T12:42:39.325Z,12.13
2022-12-15T12:45:13.610Z,13.53
2022-12-15T12:47:50.264Z,13.57
2022-12-15T12:50:21.403Z,14.33
2022-12-15T12:52:52.341Z,15.37
2022-12-15T12:55:30.116Z,18.50
2022-12-15T12:57:58.678Z,23.10
2022-12-15T13:00:32.638Z,23.67
2022-12-15T13:03:22.042Z,21.83
2022-12-15T13:05:54.644Z,20.03
2022-12-15T13:08:50.810Z,17.40
2022-12-15T13:11:58.949Z,17.23
2022-12-15T13:14:51.600Z,18.20
2022-12-15T13:17:29.157Z,20.93
2022-12-15T13:20:25.862Z,22.40
2022-12-15T13:22:55.597Z,22.60
2022-12-15T13:25:53.711Z,24.43
2022-12-15T13:28:39.871Z,17.83
2022-12-15T13:31:48.997Z,14.67
2022-12-15T13:34:27.161Z,13.20
2022-12-15T13:37:00.695Z,14.27
2022-12-15T13:39:55.544Z,17.30
2022-12-15T13:42:41.621Z,15.97
2022-12-15T13:45:51.769Z,14.47
2022-12-15T13:48:32.729Z,11.07
2022-12-15T13:51:16.038Z,9.80
2022-12-15T13:53:49.743Z,10.70
2022-12-15T13:56:40.295Z,12.40
2022-12-15T13:59:19.898Z,18.27
2022-12-15T14:01:52.532Z,19.80
2022-12-15T14:04:23.479Z,14.93
2022-12-15T14:06:55.048Z,13.23
2022-12-15T14:09:28.615Z,14.63
2022-12-15T14:11:57.139Z,16.70
2022-12-15T14:14:29.159Z,15.63
2022-12-15T14:17:02.881Z,11.67
2022-12-15T14:19:43.854Z,11.90
2022-12-15T14:22:28.069Z,11.00
2022-12-15T14:25:03.217Z,11.00
2022-12-15T14:27:34.088Z,10.20
2022-12-15T14:30:23.643Z,11.93
2022-12-15T14:32:55.715Z,11.10
2022-12-15T14:35:30.464Z,13.87
2022-12-15T14:38:02.840Z,14.67
2022-12-15T14:40:32.014Z,17.03
2022-12-15T14:43:00.872Z,17.70
2022-12-15T14:45:32.393Z,19.87
2022-12-15T14:51:01.500Z,27.30
2022-12-15T14:53:34.188Z,21.43
2022-12-15T14:56:29.766Z,24.93
2022-12-15T14:59:03.999Z,22.83
2022-12-15T15:01:40.096Z,20.87
2022-12-15T15:04:29.298Z,22.57
2022-12-15T15:07:01.572Z,19.00
2022-12-15T15:09:32.664Z,18.80
2022-12-15T15:12:03.997Z,18.20
2022-12-15T15:14:34.713Z,16.60
2022-12-15T15:17:07.022Z,14.17
2022-12-15T15:19:39.861Z,9.73
2022-12-15T15:22:25.647Z,14.20
2022-12-15T15:24:54.004Z,22.40
2022-12-15T15:27:33.977Z,22.43
2022-12-15T15:30:17.618Z,35.83
2022-12-15T15:32:57.601Z,41.20
2022-12-15T15:35:30.709Z,48.33
2022-12-15T15:38:05.550Z,51.30
2022-12-15T15:40:34.361Z,49.47
2022-12-15T15:43:03.524Z,42.90
2022-12-15T15:45:32.199Z,32.87
2022-12-15T15:48:00.846Z,18.77
2022-12-15T15:50:31.009Z,13.90
2022-12-15T15:53:01.079Z,16.37
2022-12-15T15:55:39.357Z,17.53
2022-12-15T15:58:12.259Z,22.47
2022-12-15T16:00:41.164Z,20.90
2022-12-15T16:03:09.811Z,22.57
2022-12-15T16:05:38.327Z,24.90
2022-12-15T16:08:08.666Z,25.27
2022-12-15T16:10:36.996Z,23.43
2022-12-15T16:13:05.275Z,19.07
2022-12-15T16:15:33.709Z,22.03
2022-12-15T16:18:02.065Z,18.00
2022-12-15T16:20:31.198Z,15.97
2022-12-15T16:23:01.518Z,11.03
2022-12-15T16:25:42.449Z,6.73
2022-12-15T16:28:17.605Z,3.70
2022-12-15T16:30:46.625Z,2.80
2022-12-15T16:33:15.426Z,5.47
2022-12-15T16:35:45.268Z,7.77
2022-12-15T16:38:19.565Z,8.60
2022-12-15T16:40:49.505Z,6.93
2022-12-15T16:43:20.986Z,9.70
2022-12-15T16:45:51.189Z,13.77
2022-12-15T16:48:20.087Z,21.53
2022-12-15T16:50:52.451Z,19.87
2022-12-15T16:53:23.987Z,14.50
2022-12-15T16:55:56.584Z,9.67
2022-12-15T16:58:26.732Z,7.80
2022-12-15T17:00:55.320Z,7.23
2022-12-15T17:03:26.701Z,7.07
2022-12-15T17:05:57.370Z,7.80
2022-12-15T17:08:29.167Z,11.80
2022-12-15T17:10:59.526Z,10.57
2022-12-15T17:13:39.108Z,12.53
2022-12-15T17:16:14.377Z,17.90
2022-12-15T17:18:44.580Z,19.50
2022-12-15T17:21:16.997Z,15.43
2022-12-15T17:23:46.379Z,15.97
2022-12-15T17:26:28.134Z,18.27
2022-12-15T17:28:58.977Z,21.57
2022-12-15T17:31:33.277Z,21.73
2022-12-15T17:34:09.808Z,19.13
2022-12-15T17:36:38.156Z,18.53
2022-12-15T17:39:11.219Z,12.97
2022-12-15T17:44:34.783Z,8.43
2022-12-15T17:47:05.597Z,6.30
2022-12-15T17:49:36.485Z,5.33
2022-12-15T17:52:09.246Z,12.77
2022-12-15T17:54:37.511Z,17.53
2022-12-15T17:57:07.407Z,21.83
2022-12-15T17:59:35.787Z,24.40
2022-12-15T18:02:04.250Z,23.63
2022-12-15T18:04:32.576Z,14.77
2022-12-15T18:07:02.290Z,10.23
2022-12-15T18:09:31.264Z,10.60
2022-12-15T18:11:59.941Z,12.77
2022-12-15T18:14:30.164Z,17.43
2022-12-15T18:16:58.431Z,19.73
2022-12-15T18:19:30.297Z,15.93
2022-12-15T18:22:03.197Z,10.40
2022-12-15T18:24:31.898Z,8.70
2022-12-15T18:27:00.285Z,6.90
2022-12-15T18:29:30.188Z,6.40
2022-12-15T18:31:58.674Z,9.53
2022-12-15T18:34:27.179Z,9.27
2022-12-15T18:36:55.471Z,9.60
2022-12-15T18:39:25.233Z,9.63
2022-12-15T18:41:55.181Z,7.73
2022-12-15T18:44:25.686Z,7.10
2022-12-15T18:46:55.991Z,6.20
2022-12-15T18:49:24.532Z,6.80
2022-12-15T18:51:53.000Z,7.47
2022-12-15T18:54:23.412Z,8.07
2022-12-15T18:56:52.263Z,6.70
2022-12-15T18:59:23.114Z,10.30
2022-12-15T19:01:51.509Z,26.20
2022-12-15T19:04:21.355Z,33.10
2022-12-15T19:06:49.706Z,23.77
2022-12-15T19:09:20.347Z,13.13
2022-12-15T19:12:12.032Z,9.40
2022-12-15T19:14:43.171Z,13.13
2022-12-15T19:17:30.819Z,11.90
2022-12-15T19:20:18.008Z,8.43
2022-12-15T19:22:47.995Z,8.23
2022-12-15T19:25:25.799Z,9.10
2022-12-15T19:27:59.086Z,9.80
2022-12-15T19:30:29.211Z,7.00
2022-12-15T19:32:57.601Z,5.30
2022-12-15T19:35:29.162Z,5.43
2022-12-15T19:37:59.077Z,8.20
2022-12-15T19:40:30.407Z,12.13
2022-12-15T19:43:00.225Z,19.70
2022-12-15T19:45:31.511Z,26.70
2022-12-15T19:48:00.036Z,28.37
2022-12-15T19:50:36.406Z,18.00
2022-12-15T19:53:11.113Z,12.60
2022-12-15T19:55:40.850Z,13.70
2022-12-15T19:58:27.892Z,10.87
2022-12-15T20:00:58.344Z,9.20
2022-12-15T20:03:27.909Z,18.63
2022-12-15T20:05:59.483Z,12.53
2022-12-15T20:08:29.480Z,8.07
2022-12-15T20:10:58.173Z,7.50
2022-12-15T20:13:27.181Z,5.17
2022-12-15T20:15:56.365Z,5.33
2022-12-15T20:18:24.652Z,4.90
2022-12-15T20:20:53.121Z,12.90
2022-12-15T20:23:26.367Z,9.87
2022-12-15T20:25:55.894Z,7.13
2022-12-15T20:28:26.236Z,11.67
2022-12-15T20:30:55.298Z,11.20
2022-12-15T20:33:24.103Z,9.47
2022-12-15T20:35:52.849Z,7.40
2022-12-15T20:38:27.535Z,6.47
2022-12-15T20:40:56.474Z,6.80
2022-12-15T20:43:25.726Z,8.80
2022-12-15T20:46:02.134Z,9.13
2022-12-15T20:48:31.374Z,10.17
2022-12-15T20:51:04.251Z,10.43
2022-12-15T20:53:36.062Z,8.80
2022-12-15T20:56:04.742Z,8.23
2022-12-15T20:58:40.579Z,9.97
2022-12-15T21:01:20.497Z,9.77
2022-12-15T21:03:50.431Z,9.50
2022-12-15T21:06:20.715Z,8.93
2022-12-15T21:08:50.778Z,8.17
2022-12-15T21:11:21.320Z,7.43
2022-12-15T21:13:51.221Z,8.70
2022-12-15T21:16:21.822Z,10.00
2022-12-15T21:19:19.216Z,15.37
2022-12-15T21:21:41.648Z,13.80
2022-12-15T21:24:17.280Z,13.23
2022-12-15T21:26:46.176Z,12.70
2022-12-15T21:29:16.049Z,10.10
2022-12-15T21:31:45.634Z,6.27
2022-12-15T21:34:14.171Z,5.90
2022-12-15T21:36:44.894Z,4.70
2022-12-15T21:39:20.929Z,4.37
2022-12-15T21:41:49.266Z,4.20
2022-12-15T21:44:19.144Z,3.97
2022-12-15T21:46:47.450Z,4.30
2022-12-15T21:49:17.412Z,5.73
2022-12-15T21:51:48.393Z,5.23
2022-12-15T21:54:20.366Z,5.97
2022-12-15T21:56:49.610Z,5.07
2022-12-15T21:59:21.529Z,5.77
2022-12-15T22:01:50.548Z,3.57
2022-12-15T22:04:22.271Z,3.70
2022-12-15T22:06:51.107Z,3.53
2022-12-15T22:09:21.905Z,4.23
2022-12-15T22:11:52.982Z,3.30
2022-12-15T22:14:26.045Z,4.87
2022-12-15T22:16:54.766Z,5.40
2022-12-15T22:19:23.943Z,7.60
2022-12-15T22:21:52.632Z,12.73
2022-12-15T22:24:22.412Z,11.33
2022-12-15T22:26:51.244Z,8.13
2022-12-15T22:29:21.722Z,6.97
2022-12-15T22:31:50.760Z,6.77
2022-12-15T22:34:22.403Z,8.00
2022-12-15T22:36:51.899Z,6.17
2022-12-15T22:39:21.853Z,6.50
2022-12-15T22:41:54.085Z,8.27
2022-12-15T22:44:26.584Z,6.77
2022-12-15T22:46:57.904Z,8.83
2022-12-15T22:49:30.493Z,8.43
2022-12-15T22:51:59.281Z,7.90
2022-12-15T22:54:30.497Z,8.03
2022-12-15T22:57:04.021Z,8.23
2022-12-15T22:59:35.796Z,7.30
2022-12-15T23:02:04.631Z,7.30
2022-12-15T23:04:33.849Z,7.20
2022-12-15T23:07:04.819Z,7.00
2022-12-15T23:09:34.652Z,6.37
2022-12-15T23:12:01.987Z,5.93
2022-12-15T23:14:44.299Z,6.40
2022-12-15T23:17:13.174Z,6.60
2022-12-15T23:19:45.460Z,6.67
2022-12-15T23:22:14.198Z,6.53
2022-12-15T23:24:43.900Z,4.57
2022-12-15T23:27:12.782Z,4.83
2022-12-15T23:29:41.408Z,5.53
2022-12-15T23:32:09.677Z,5.13
2022-12-15T23:34:38.022Z,6.77
2022-12-15T23:37:06.303Z,6.83
2022-12-15T23:39:34.664Z,6.03
2022-12-15T23:42:05.616Z,5.60
2022-12-15T23:44:34.258Z,6.23
2022-12-15T23:47:02.815Z,5.90
2022-12-15T23:49:31.463Z,5.23
2022-12-15T23:51:59.779Z,4.73
2022-12-15T23:54:28.382Z,5.37
2022-12-15T23:56:56.778Z,6.10
2022-12-15T23:59:26.419Z,6.07
